This is the latest recevied weather packets stored in our database for station/object K1BES. If no packets are shown the sender has not sent any weather packets the latest 10 day(s).
| Time | Temp. | Humidity | Pressure | Rain* | Wind** | Luminosity | Snow |
|---|---|---|---|---|---|---|---|
| 1777944717 | 22.22° C | 88% | 1016.7 hPa | 0 mm | - | 0 W/m² | - |
| 1777944415 | 22.22° C | 90% | 1017 hPa | 0 mm | - | 0 W/m² | - |
| 1777944112 | 22.22° C | 90% | 1016.7 hPa | 0 mm | - | 0 W/m² | - |
| 1777943813 | 22.22° C | 90% | 1016.7 hPa | 0 mm | - | 0 W/m² | - |
| 1777943510 | 22.22° C | 91% | 1016.9 hPa | 0 mm | - | 0 W/m² | - |
| 1777943205 | 21.67° C | 91% | 1016.8 hPa | 0 mm | - | 0 W/m² | - |
| 1777942902 | 22.22° C | 90% | 1016.6 hPa | 1.27 mm | - | 0 W/m² | - |
| 1777942598 | 22.22° C | 90% | 1016.4 hPa | 1.27 mm | - | 0 W/m² | - |
| 1777942295 | 22.22° C | 88% | 1016.6 hPa | 23.37 mm | - | 0 W/m² | - |
| 1777941993 | 22.78° C | 87% | 1016.5 hPa | 26.42 mm | - | 0 W/m² | - |
| 1777941689 | 23.33° C | 85% | 1016.5 hPa | 6.1 mm | - | 0 W/m² | - |
| 1777941386 | 23.89° C | 82% | 1016.4 hPa | 11.94 mm | - | 0 W/m² | - |
| 1777941084 | 24.44° C | 79% | 1016.4 hPa | 10.16 mm | - | 0 W/m² | - |
| 1777940780 | 25° C | 74% | 1016 hPa | 1.27 mm | - | 0 W/m² | - |
| 1777940478 | 25.56° C | 71% | 1015.8 hPa | 0 mm | - | 0 W/m² | - |
| 1777940175 | 25.56° C | 68% | 1015.4 hPa | 0 mm | - | 0 W/m² | - |
| 1777939873 | 25.56° C | 68% | 1015.4 hPa | 0 mm | - | 1 W/m² | - |
| 1777939569 | 26.11° C | 67% | 1015.5 hPa | 0 mm | - | 1 W/m² | - |
| 1777939267 | 26.11° C | 66% | 1015.5 hPa | 0 mm | - | 3 W/m² | - |
| 1777938963 | 26.11° C | 65% | 1015.5 hPa | 0 mm | - | 6 W/m² | - |
| 1777938660 | 26.67° C | 64% | 1015.4 hPa | 0 mm | - | 8 W/m² | - |
| 1777938357 | 26.67° C | 63% | 1015.4 hPa | 0 mm | - | 11 W/m² | - |
| 1777938054 | 26.67° C | 63% | 1015.4 hPa | 0 mm | - | 14 W/m² | - |
| 1777937749 | 26.67° C | 63% | 1015.3 hPa | 0 mm | - | 14 W/m² | - |
| 1777937446 | 26.67° C | 63% | 1015.1 hPa | 0 mm | - | 14 W/m² | - |
* Rain latest hour (hover to see other rain measurements)
** Current wind speed in m/s (hover to see current wind gust speed)